Latest Weather Observations for Moorabbin Airport

IDV60901

Issued at 6:41 pm EST Monday 4 May 2026 (issued every 10 minutes, with the page automatically refreshed every 10 minutes)

About weather observations | Map of Melbourne area stations | Latest observations for Melbourne area | Other Formats
Station Details ID: 086077 Name: MOORABBIN AIRPORT Lat: -37.98 Lon: 145.10 Height: 12.1 m
Data from the previous 72 hours. | See also: Recent months at Moorabbin Airport
Date/Time
EST
Temp
°C
App
Temp
°C
Dew
Point
°C
Rel
Hum
%
Delta-T
°C
Wind Press
QNH
hPa
Press
MSL
hPa
Rain since
9am
mm
Dir  Spd
km/h
Gust
km/h
Spd
kts
Gust
kts
04/06:30pm 15.0 9.1 10.4 74 2.4 N 32 44 17 24 1010.2 1010.2 0.0
04/06:00pm 15.4 9.4 10.0 70 2.8 N 32 43 17 23 1009.9 1009.9 0.0
04/05:30pm 15.8 9.6 9.9 68 3.1 N 33 50 18 27 1009.5 1009.5 0.0
04/05:11pm 15.5 8.7 10.7 73 2.5 N 37 56 20 30 1009.4 1009.4 0.0
04/05:00pm 16.1 8.3 9.8 66 3.3 N 41 54 22 29 1009.3 1009.3 0.0
04/04:33pm 17.1 9.7 8.5 57 4.4 N 37 56 20 30 1008.9 1008.9 0.0
04/04:30pm 17.1 9.7 8.5 57 4.4 N 37 54 20 29 1008.9 1008.9 0.0
04/04:00pm 17.9 10.2 8.5 54 4.9 N 39 57 21 31 1008.6 1008.6 0.0
04/03:33pm 17.6 10.5 7.9 53 4.9 N 35 56 19 30 1008.7 1008.7 0.0
04/03:30pm 17.9 10.4 7.9 52 5.1 N 37 52 20 28 1008.9 1008.9 0.0
04/03:01pm 18.7 11.0 8.7 52 5.2 N 39 57 21 31 1008.7 1008.7 0.0
04/03:00pm 18.7 10.7 8.9 53 5.1 N 41 57 22 31 1008.7 1008.7 0.0
04/02:30pm 17.9 10.3 7.6 51 5.2 N 37 61 20 33 1008.7 1008.7 0.0
04/02:24pm 19.0 10.9 8.6 51 5.4 N 41 59 22 32 1008.7 1008.7 0.0
04/02:00pm 18.5 10.2 7.9 50 5.4 N 41 56 22 30 1008.7 1008.7 0.0
04/01:32pm 19.1 12.1 8.4 50 5.5 N 35 54 19 29 1009.0 1009.0 0.0
04/01:30pm 18.7 10.8 7.8 49 5.6 N 39 54 21 29 1008.9 1008.9 0.0
04/01:03pm 17.9 10.7 7.6 51 5.2 N 35 56 19 30 1009.3 1009.3 0.0
04/01:00pm 18.3 11.0 7.4 49 5.5 N 35 50 19 27 1009.4 1009.4 0.0
04/12:32pm 17.6 10.1 7.9 53 4.9 NNW 37 56 20 30 1009.7 1009.7 0.0
04/12:30pm 17.9 10.0 7.9 52 5.1 NNW 39 56 21 30 1009.7 1009.7 0.0
04/12:01pm 18.1 9.6 8.7 54 4.9 N 43 61 23 33 1010.2 1010.2 0.0
04/12:00pm 17.7 9.0 8.3 54 4.8 N 44 61 24 33 1010.2 1010.2 0.0
04/11:32am 16.9 10.2 8.3 57 4.4 N 33 52 18 28 1010.6 1010.6 0.0
04/11:30am 17.5 11.1 9.2 58 4.3 N 33 50 18 27 1010.7 1010.7 0.0
04/11:12am 17.5 10.6 8.9 57 4.5 N 35 57 19 31 1010.6 1010.6 0.0
04/11:00am 17.1 9.4 8.8 58 4.3 N 39 54 21 29 1010.7 1010.7 0.0
04/10:30am 17.5 11.3 9.4 59 4.2 N 32 50 17 27 1010.6 1010.6 0.0
04/10:28am 17.3 11.0 9.0 58 4.3 NNW 32 50 17 27 1010.7 1010.7 0.0
04/10:00am 16.7 9.4 8.9 60 4.0 N 37 54 20 29 1010.6 1010.6 0.0
04/09:30am 16.5 9.6 8.7 60 4.0 N 35 46 19 25 1010.7 1010.7 0.0
04/09:00am 15.9 9.4 8.2 60 3.9 N 32 44 17 24 1011.0 1011.0 7.6
04/08:30am 15.2 10.7 8.4 64 3.4 N 22 32 12 17 1011.1 1011.1 7.6
04/08:00am 14.3 10.2 8.5 68 2.9 N 20 24 11 13 1011.2 1011.2 7.6
04/07:30am 13.5 9.4 8.6 72 2.5 N 20 26 11 14 1011.1 1011.1 7.6
04/07:00am 13.3 9.2 8.6 73 2.4 N 20 24 11 13 1011.0 1011.0 7.6
04/06:30am 13.6 9.8 8.9 73 2.4 N 19 24 10 13 1010.8 1010.8 7.6
04/06:00am 12.4 10.0 8.5 77 1.9 N 11 13 6 7 1010.8 1010.8 7.6
04/05:30am 12.7 9.2 8.8 77 2.0 N 17 24 9 13 1010.8 1010.8 7.6
04/05:00am 13.0 9.2 8.9 76 2.1 N 19 26 10 14 1011.1 1011.1 7.6
04/04:30am 13.1 9.7 9.2 77 2.0 N 17 22 9 12 1011.3 1011.3 7.6
04/04:00am 13.1 9.5 9.7 80 1.7 N 19 24 10 13 1011.5 1011.5 7.6
04/03:30am 12.7 9.4 9.7 82 1.5 N 17 22 9 12 1011.7 1011.7 7.6
04/03:00am 12.7 10.1 9.5 81 1.6 NNE 13 17 7 9 1011.8 1011.8 7.6
04/02:30am 12.9 9.6 9.5 80 1.7 N 17 20 9 11 1012.0 1012.0 7.6
04/02:00am 13.4 9.7 9.6 78 1.9 N 19 24 10 13 1012.0 1012.0 7.6
04/01:30am 13.9 10.1 9.9 77 2.1 N 20 26 11 14 1012.0 1012.0 7.6
04/01:00am 14.3 9.8 9.9 75 2.3 N 24 32 13 17 1011.9 1011.9 7.6
04/12:30am 14.0 10.6 10.6 80 1.8 N 19 24 10 13 1012.1 1012.1 7.6
04/12:00am 14.7 10.8 10.9 78 2.0 N 22 30 12 16 1012.0 1012.0 7.6
 
Date/Time
EST
Temp
°C
App
Temp
°C
Dew
Point
°C
Rel
Hum
%
Delta-T
°C
Wind Press
QNH
hPa
Press
MSL
hPa
Rain since
9am
mm
Dir  Spd
km/h
Gust
km/h
Spd
kts
Gust
kts
03/11:30pm 15.2 10.5 10.6 74 2.4 N 26 35 14 19 1011.9 1011.9 7.6
03/11:00pm 14.9 11.3 10.5 75 2.3 N 20 24 11 13 1012.2 1012.2 7.6
03/10:30pm 15.2 11.6 10.4 73 2.5 N 20 30 11 16 1012.5 1012.5 7.6
03/10:00pm 15.3 11.6 10.3 72 2.6 N 20 26 11 14 1012.8 1012.8 7.6
03/09:30pm 15.2 11.7 10.2 72 2.6 N 19 24 10 13 1013.1 1013.1 7.6
03/09:00pm 15.4 11.7 10.2 71 2.7 N 20 26 11 14 1012.7 1012.7 7.6
03/08:30pm 15.1 11.4 10.1 72 2.6 N 20 24 11 13 1013.1 1013.1 7.6
03/08:00pm 15.1 11.9 9.9 71 2.7 N 17 24 9 13 1013.0 1013.0 7.6
03/07:30pm 15.5 12.1 9.2 66 3.2 N 17 24 9 13 1012.8 1012.8 7.6
03/07:00pm 15.7 12.3 9.1 65 3.4 NNW 17 26 9 14 1012.1 1012.1 7.6
03/06:30pm 14.3 12.4 9.1 71 2.6 NNW 9 13 5 7 1011.2 1011.2 7.6
03/06:00pm 15.7 14.1 8.9 64 3.5 NW 7 9 4 5 1011.1 1011.1 7.6
03/05:30pm 17.1 13.9 8.5 57 4.4 NW 15 20 8 11 1010.9 1010.9 7.6
03/05:00pm 18.2 15.2 7.9 51 5.3 NNW 13 17 7 9 1010.6 1010.6 7.6
03/04:30pm 18.4 16.1 11.7 65 3.7 NNW 15 20 8 11 1010.2 1010.2 7.6
03/04:00pm 17.9 15.9 12.6 71 3.0 NNW 15 20 8 11 1010.2 1010.2 7.6
03/03:30pm 17.4 16.1 13.7 79 2.1 NNW 13 20 7 11 1010.4 1010.4 7.6
03/03:00pm 17.7 16.1 13.8 78 2.2 NNW 15 22 8 12 1010.3 1010.3 7.4
03/02:30pm 17.5 13.6 14.4 82 1.8 NNW 28 43 15 23 1010.1 1010.1 7.4
03/02:00pm 19.4 16.7 15.5 78 2.3 N 24 32 13 17 1009.7 1009.7 6.4
03/01:30pm 20.3 17.1 15.3 73 3.0 N 26 37 14 20 1009.7 1009.7 6.4
03/01:01pm 20.3 16.3 15.1 72 3.1 N 30 48 16 26 1010.0 1010.0 6.4
03/01:00pm 20.3 15.8 14.9 71 3.2 N 32 48 17 26 1010.0 1010.0 6.4
03/12:30pm 20.3 17.4 16.1 77 2.5 N 26 39 14 21 1010.1 1010.1 6.4
03/12:00pm 19.2 17.1 16.2 83 1.8 NNW 22 30 12 16 1010.3 1010.3 6.4
03/11:47am 18.2 15.4 15.3 83 1.7 N 24 43 13 23 1010.1 1010.1 6.4
03/11:30am 18.1 12.8 15.4 84 1.6 NNE 37 65 20 35 1009.3 1009.3 6.2
03/11:21am 17.9 13.5 15.7 87 1.3 NNE 33 54 18 29 1009.8 1009.8 5.8
03/11:00am 18.1 14.7 15.7 86 1.4 NNE 28 39 15 21 1010.4 1010.4 4.6
03/10:30am 18.2 15.2 15.8 86 1.4 NNE 26 35 14 19 1010.9 1010.9 3.2
03/10:00am 18.6 14.1 15.5 82 1.8 N 33 48 18 26 1011.2 1011.2 1.4
03/09:30am 20.7 15.4 14.1 66 3.8 N 35 48 19 26 1010.4 1010.4 0.0
03/09:17am 20.8 15.4 14.0 65 3.9 N 35 54 19 29 1011.1 1011.1 0.0
03/09:00am 20.7 15.7 13.9 65 3.9 N 33 46 18 25 1011.0 1011.0 0.0
03/08:30am 20.4 15.3 13.8 66 3.8 NNE 33 46 18 25 1010.3 1010.3 0.0
03/08:00am 19.6 14.8 14.0 70 3.2 N 32 46 17 25 1011.2 1011.2 0.0
03/07:53am 19.5 15.5 14.1 71 3.1 N 28 46 15 25 1011.4 1011.4 0.0
03/07:30am 19.2 15.1 13.8 71 3.1 N 28 35 15 19 1011.4 1011.4 0.0
03/07:00am 19.6 14.4 13.3 67 3.6 N 33 48 18 26 1011.4 1011.4 0.0
03/06:30am 19.5 13.2 13.4 68 3.5 N 39 54 21 29 1012.0 1012.0 0.0
03/06:00am 20.7 14.8 12.4 59 4.7 N 35 50 19 27 1011.8 1011.8 0.0
03/05:34am 20.8 15.3 12.5 59 4.7 N 33 52 18 28 1011.9 1011.9 0.0
03/05:30am 21.0 15.0 12.2 57 4.9 N 35 52 19 28 1011.9 1011.9 0.0
03/05:00am 21.3 15.7 12.2 56 5.1 N 33 48 18 26 1011.5 1011.5 0.0
03/04:30am 21.8 16.2 11.5 52 5.7 N 32 44 17 24 1011.3 1011.3 0.0
03/04:00am 21.5 17.9 11.8 54 5.4 N 22 32 12 17 1011.9 1011.9 0.0
03/03:30am 21.9 17.8 11.3 51 5.9 N 24 33 13 18 1012.2 1012.2 0.0
03/03:00am 20.2 18.1 11.1 56 5.0 N 13 15 7 8 1012.4 1012.4 0.0
03/02:30am 20.4 18.6 10.8 54 5.2 NNE 11 13 6 7 1012.6 1012.6 0.0
03/02:00am 20.6 18.4 10.7 53 5.4 NNE 13 20 7 11 1012.8 1012.8 0.0
03/01:30am 19.9 17.9 10.3 54 5.2 NNE 11 17 6 9 1013.0 1013.0 0.0
03/01:00am 19.6 19.2 9.8 53 5.2 N 2 9 1 5 1013.1 1013.1 0.0
03/12:30am 20.1 18.4 9.7 51 5.6 N 9 13 5 7 1013.4 1013.4 0.0
03/12:00am 21.2 18.6 9.4 47 6.3 NNW 13 15 7 8 1013.6 1013.6 0.0
 
Date/Time
EST
Temp
°C
App
Temp
°C
Dew
Point
°C
Rel
Hum
%
Delta-T
°C
Wind Press
QNH
hPa
Press
MSL
hPa
Rain since
9am
mm
Dir  Spd
km/h
Gust
km/h
Spd
kts
Gust
kts
02/11:30pm 21.6 19.0 9.2 45 6.6 N 13 19 7 10 1013.9 1013.9 0.0
02/11:00pm 22.0 18.1 8.5 42 7.1 N 19 26 10 14 1014.0 1014.0 0.0
02/10:30pm 21.8 20.1 10.0 47 6.4 NNW 9 15 5 8 1014.3 1014.3 0.0
02/10:00pm 22.0 19.6 10.2 47 6.4 N 13 17 7 9 1014.4 1014.4 0.0
02/09:30pm 21.2 18.7 9.8 48 6.1 NNE 13 17 7 9 1014.3 1014.3 0.0
02/09:00pm 21.4 19.0 9.9 48 6.2 NE 13 17 7 9 1014.5 1014.5 0.0
02/08:30pm 21.7 19.3 9.9 47 6.4 NE 13 19 7 10 1014.5 1014.5 0.0
02/08:00pm 21.4 18.6 9.9 48 6.2 NNE 15 19 8 10 1014.6 1014.6 0.0
02/07:30pm 22.4 19.6 9.9 45 6.8 NNE 15 20 8 11 1014.7 1014.7 0.0
02/07:00pm 22.9 19.7 10.0 44 7.0 NNE 17 24 9 13 1014.8 1014.8 0.0
02/06:30pm 22.9 20.4 9.7 43 7.2 NNE 13 17 7 9 1014.6 1014.6 0.0
02/06:00pm 22.8 19.8 9.2 42 7.3 NNE 15 20 8 11 1014.7 1014.7 0.0
02/05:30pm 23.7 19.7 8.9 39 7.9 N 20 32 11 17 1014.5 1014.5 0.0
02/05:00pm 24.2 18.9 8.6 37 8.4 NNE 26 35 14 19 1014.2 1014.2 0.0
02/04:30pm 24.3 18.3 8.7 37 8.4 N 30 41 16 22 1014.2 1014.2 0.0
02/04:00pm 24.4 19.5 8.4 36 8.5 N 24 33 13 18 1014.3 1014.3 0.0
02/03:30pm 24.5 18.9 8.9 37 8.4 N 28 37 15 20 1014.6 1014.6 0.0
02/03:00pm 24.2 18.3 9.0 38 8.2 N 30 41 16 22 1014.7 1014.7 0.0
02/02:30pm 24.0 19.4 9.6 40 7.8 NNE 24 33 13 18 1015.0 1015.0 0.0
02/02:00pm 23.4 19.8 9.8 42 7.4 NNE 19 28 10 15 1015.4 1015.4 0.0
02/01:30pm 23.3 19.1 9.7 42 7.4 NNE 22 35 12 19 1015.9 1015.9 0.0
02/01:00pm 23.2 19.6 9.9 43 7.2 NNE 19 24 10 13 1016.5 1016.5 0.0
02/12:30pm 22.9 18.8 10.0 44 7.0 NNE 22 33 12 18 1017.1 1017.1 0.0
02/12:00pm 22.3 16.4 9.1 43 7.0 NNE 30 41 16 22 1017.5 1017.5 0.0
02/11:30am 22.2 16.8 9.4 44 6.9 NNE 28 35 15 19 1017.9 1017.9 0.0
02/11:00am 21.8 16.7 9.3 45 6.7 NNE 26 39 14 21 1018.5 1018.5 0.0
02/10:30am 21.5 16.8 9.4 46 6.5 NNE 24 30 13 16 1018.8 1018.8 0.0
02/10:00am 21.1 16.4 9.4 47 6.2 NNE 24 30 13 16 1019.0 1019.0 0.0
02/09:30am 20.9 16.9 9.2 47 6.2 NNE 20 28 11 15 1019.2 1019.2 0.0
02/09:00am 20.4 17.0 9.0 48 6.0 NNE 17 22 9 12 1019.3 1019.3 0.0
02/08:30am 19.8 16.4 9.1 50 5.6 NNE 17 22 9 12 1019.2 1019.2 0.0
02/08:00am 19.2 15.7 8.8 51 5.4 NE 17 19 9 10 1019.2 1019.2 0.0
02/07:30am 18.9 15.4 8.6 51 5.3 NNE 17 20 9 11 1018.9 1018.9 0.0
02/07:00am 18.1 15.0 8.7 54 4.9 NE 15 17 8 9 1018.7 1018.7 0.0
02/06:30am 18.5 15.4 8.7 53 5.1 NE 15 20 8 11 1018.7 1018.7 0.0
02/06:00am 17.9 14.4 8.7 55 4.7 NE 17 20 9 11 1018.6 1018.6 0.0
02/05:30am 17.7 14.5 8.6 55 4.7 NE 15 19 8 10 1018.8 1018.8 0.0
02/05:00am 17.6 14.8 8.7 56 4.6 NNE 13 17 7 9 1018.8 1018.8 0.0
02/04:30am 18.1 14.9 8.4 53 5.0 NNE 15 17 8 9 1018.9 1018.9 0.0
02/04:00am 18.1 15.3 8.7 54 4.9 NNE 13 17 7 9 1019.0 1019.0 0.0
02/03:30am 18.0 15.1 8.3 53 5.0 NNE 13 17 7 9 1019.0 1019.0 0.0
02/03:00am 18.3 15.9 8.6 53 5.0 NNE 11 15 6 8 1019.1 1019.1 0.0
02/02:30am 17.4 15.0 8.8 57 4.4 NNE 11 15 6 8 1019.4 1019.4 0.0
02/02:00am 18.2 15.5 9.0 55 4.8 NNE 13 17 7 9 1019.8 1019.8 0.0
02/01:30am 18.4 15.7 8.9 54 4.9 NNE 13 19 7 10 1019.9 1019.9 0.0
02/01:00am 18.2 15.5 9.0 55 4.8 NNE 13 15 7 8 1020.2 1020.2 0.0
02/12:30am 19.4 16.3 9.0 51 5.5 NNE 15 19 8 10 1020.4 1020.4 0.0
02/12:00am 20.2 16.8 9.2 49 5.8 NNE 17 20 9 11 1020.7 1020.7 0.0
 
Date/Time
EST
Temp
°C
App
Temp
°C
Dew
Point
°C
Rel
Hum
%
Delta-T
°C
Wind Press
QNH
hPa
Press
MSL
hPa
Rain since
9am
mm
Dir  Spd
km/h
Gust
km/h
Spd
kts
Gust
kts
01/11:30pm 20.5 17.1 9.1 48 6.0 NNE 17 22 9 12 1021.0 1021.0 0.0
01/11:00pm 20.5 17.5 9.1 48 6.0 NNE 15 20 8 11 1021.3 1021.3 0.0
01/10:30pm 20.4 17.3 9.0 48 6.0 NE 15 19 8 10 1021.6 1021.6 0.0
01/10:00pm 21.2 17.8 9.1 46 6.4 NE 17 20 9 11 1021.8 1021.8 0.0
01/09:30pm 21.5 17.7 9.1 45 6.6 NE 19 26 10 14 1021.7 1021.7 0.0
01/09:00pm 21.4 18.0 9.3 46 6.4 NE 17 20 9 11 1021.8 1021.8 0.0
01/08:30pm 21.4 18.1 9.6 47 6.3 NE 17 20 9 11 1021.8 1021.8 0.0
01/08:00pm 21.3 18.4 9.5 47 6.3 NNE 15 19 8 10 1021.7 1021.7 0.0
01/07:30pm 20.8 18.2 9.4 48 6.1 NE 13 17 7 9 1021.7 1021.7 0.0
01/07:00pm 21.0 18.3 8.9 46 6.4 NE 13 15 7 8 1021.7 1021.7 0.0

Latest Capital City Observations: Canberra | Sydney | Melbourne | Brisbane | Adelaide | Perth | Hobart | Darwin

Other formats

Comma delimited format used in spreadsheet applications
http://www.bom.gov.au/fwo/IDV60901/IDV60901.94870.axf

JavaScript Object Notation format (JSON) in row-major order
http://www.bom.gov.au/fwo/IDV60901/IDV60901.94870.json

Data quality

Most of these data are generated automatically and are frequently updated. Quality checks on data are not normally performed. It is possible for incorrect values to appear. Refer to information at About Latest Weather Observations and please check the disclaimer before using these data.